Time;durP1;ratioP1;P1;durP2;ratioP2;P2;SDS_P1;SDS_P2;PMS_P1;PMS_P2;Temp;Humidity;BMP_temperature;BMP_pressure;BME280_temperature;BME280_humidity;BME280_pressure;Samples;Min_cycle;Max_cycle;Signal;HPM_P1;HPM_P2
2023/03/21 00:00:34;;;;;;;13.35;2.88;;;;;;;;;;5060812;28;20099;-73
2023/03/21 00:03:00;;;;;;;9.65;3.60;;;;;;;;;;5058172;28;20142;-73
2023/03/21 00:05:25;;;;;;;9.48;3.28;;;;;;;;;;5056504;28;20032;-73
2023/03/21 00:07:50;;;;;;;12.23;2.58;;;;;;;;;;5056707;28;20028;-73
2023/03/21 00:10:15;;;;;;;8.48;3.03;;;;;;;;;;5063858;28;20025;-73
2023/03/21 00:12:41;;;;;;;10.05;2.70;;;;;;;;;;5060845;28;20123;-73
2023/03/21 00:15:07;;;;;;;11.95;3.00;;;;;;;;;;5059980;28;20013;-73
2023/03/21 00:17:33;;;;;;;8.68;3.67;;;;;;;;;;5061312;28;20389;-73
2023/03/21 00:19:59;;;;;;;9.45;2.47;;;;;;;;;;5051496;28;20701;-73
2023/03/21 00:22:24;;;;;;;10.32;2.55;;;;;;;;;;5061558;28;20496;-73
2023/03/21 00:24:51;;;;;;;7.88;2.65;;;;;;;;;;5065923;28;20025;-73
2023/03/21 00:27:16;;;;;;;10.77;3.13;;;;;;;;;;5063405;28;20012;-72
2023/03/21 00:29:41;;;;;;;5.07;2.00;;;;;;;;;;5062570;28;20107;-72
2023/03/21 00:32:07;;;;;;;8.80;2.90;;;;;;;;;;5058967;28;20025;-73
2023/03/21 00:34:32;;;;;;;9.30;2.93;;;;;;;;;;5055050;28;20056;-73
2023/03/21 00:36:57;;;;;;;11.48;2.55;;;;;;;;;;5065340;28;20274;-73
2023/03/21 00:39:22;;;;;;;13.97;2.47;;;;;;;;;;5064615;28;20025;-73
2023/03/21 00:41:48;;;;;;;7.43;2.63;;;;;;;;;;5062173;28;20271;-73
2023/03/21 00:44:14;;;;;;;14.32;2.55;;;;;;;;;;5062852;28;20264;-72
2023/03/21 00:46:39;;;;;;;12.07;2.47;;;;;;;;;;5061220;28;20112;-73
2023/03/21 00:49:04;;;;;;;14.65;3.30;;;;;;;;;;5056110;28;20393;-73
2023/03/21 00:51:30;;;;;;;10.67;2.60;;;;;;;;;;5064965;28;20032;-73
2023/03/21 00:53:56;;;;;;;18.60;2.83;;;;;;;;;;5061751;28;20266;-73
2023/03/21 00:56:22;;;;;;;17.67;3.47;;;;;;;;;;5061283;28;20401;-73
2023/03/21 00:58:47;;;;;;;5.10;2.28;;;;;;;;;;5063007;28;20096;-72
2023/03/21 01:01:12;;;;;;;8.43;2.35;;;;;;;;;;5067480;28;20480;-72
2023/03/21 01:03:41;;;;;;;12.23;3.50;;;;;;;;;;5055559;28;20025;-72
2023/03/21 01:06:08;;;;;;;6.25;2.65;;;;;;;;;;5061845;28;20098;-73
2023/03/21 01:08:34;;;;;;;8.98;3.35;;;;;;;;;;5057444;28;20036;-73
2023/03/21 01:11:00;;;;;;;14.77;3.45;;;;;;;;;;5054676;28;20087;-73
2023/03/21 01:13:26;;;;;;;11.75;3.25;;;;;;;;;;5067675;28;20040;-72
2023/03/21 01:15:52;;;;;;;18.93;3.40;;;;;;;;;;5062178;28;20477;-72
2023/03/21 01:18:19;;;;;;;12.88;2.83;;;;;;;;;;5055471;28;20355;-73
2023/03/21 01:20:44;;;;;;;14.20;3.08;;;;;;;;;;5063308;28;20024;-73
2023/03/21 01:23:10;;;;;;;11.02;2.65;;;;;;;;;;5054327;28;20539;-73
2023/03/21 01:25:35;;;;;;;10.40;2.72;;;;;;;;;;5057941;28;20466;-72
2023/03/21 01:28:01;;;;;;;11.05;2.55;;;;;;;;;;5058966;28;20029;-73
2023/03/21 01:30:26;;;;;;;13.27;3.17;;;;;;;;;;5058450;28;20016;-73
2023/03/21 01:32:51;;;;;;;8.90;2.97;;;;;;;;;;5062595;28;20025;-73
2023/03/21 01:35:16;;;;;;;13.32;3.50;;;;;;;;;;5064731;28;20858;-73
2023/03/21 01:37:42;;;;;;;18.05;3.60;;;;;;;;;;5062567;28;20039;-73
2023/03/21 01:40:11;;;;;;;9.77;3.05;;;;;;;;;;5069792;28;20035;-73
2023/03/21 01:42:37;;;;;;;9.13;2.80;;;;;;;;;;5069726;28;20520;-72
2023/03/21 01:45:04;;;;;;;9.90;2.83;;;;;;;;;;5066631;28;20044;-73
2023/03/21 01:47:29;;;;;;;12.98;3.35;;;;;;;;;;5064868;28;20017;-73
2023/03/21 01:49:56;;;;;;;11.25;3.60;;;;;;;;;;5068044;28;20082;-73
2023/03/21 01:52:31;;;;;;;23.33;4.47;;;;;;;;;;5065732;28;20074;-72
2023/03/21 01:54:56;;;;;;;12.85;4.03;;;;;;;;;;5066619;28;20020;-72
2023/03/21 01:57:31;;;;;;;14.73;3.92;;;;;;;;;;5058324;28;20032;-72
2023/03/21 01:59:56;;;;;;;11.45;4.22;;;;;;;;;;5069798;28;20021;-73
2023/03/21 02:02:24;;;;;;;11.90;4.37;;;;;;;;;;5065090;28;20021;-73
2023/03/21 02:04:54;;;;;;;11.70;3.55;;;;;;;;;;5064872;28;20347;-72
2023/03/21 02:07:30;;;;;;;15.25;4.55;;;;;;;;;;5055058;28;20486;-72
2023/03/21 02:09:56;;;;;;;15.80;4.90;;;;;;;;;;5061481;28;20662;-73
2023/03/21 02:12:22;;;;;;;15.95;4.53;;;;;;;;;;5060512;28;20398;-73
2023/03/21 02:14:47;;;;;;;11.80;4.40;;;;;;;;;;5065113;28;20047;-73
2023/03/21 02:17:20;;;;;;;24.58;6.72;;;;;;;;;;5061940;28;20021;-73
2023/03/21 02:20:07;;;;;;;17.92;5.57;;;;;;;;;;5063864;28;20115;-72
2023/03/21 02:22:35;;;;;;;16.48;4.25;;;;;;;;;;5059919;28;20017;-72
2023/03/21 02:25:19;;;;;;;11.50;4.75;;;;;;;;;;5060442;28;20017;-73
2023/03/21 02:27:52;;;;;;;11.93;4.22;;;;;;;;;;5059880;28;20485;-72
2023/03/21 02:30:17;;;;;;;15.88;4.97;;;;;;;;;;5067524;28;20457;-72
2023/03/21 02:32:48;;;;;;;12.05;4.32;;;;;;;;;;5063896;28;20078;-72
2023/03/21 02:35:14;;;;;;;13.32;3.92;;;;;;;;;;5064406;28;20529;-72
2023/03/21 02:37:42;;;;;;;17.52;4.38;;;;;;;;;;5070816;28;20052;-72
2023/03/21 02:40:18;;;;;;;11.80;4.25;;;;;;;;;;5068049;28;20071;-73
2023/03/21 02:42:52;;;;;;;16.45;3.60;;;;;;;;;;5065793;28;20551;-72
2023/03/21 02:45:24;;;;;;;12.45;3.90;;;;;;;;;;5068921;28;20012;-73
2023/03/21 02:47:51;;;;;;;22.00;4.85;;;;;;;;;;5061617;28;20023;-73
2023/03/21 02:50:22;;;;;;;7.68;3.80;;;;;;;;;;5066803;28;20035;-73
2023/03/21 02:52:48;;;;;;;15.20;3.03;;;;;;;;;;5056986;28;20078;-73
2023/03/21 02:55:17;;;;;;;10.00;2.85;;;;;;;;;;5070558;28;20020;-73
2023/03/21 02:57:43;;;;;;;11.18;3.33;;;;;;;;;;5067462;28;20108;-72
2023/03/21 03:00:11;;;;;;;8.93;2.80;;;;;;;;;;5064553;28;20172;-72
2023/03/21 03:02:37;;;;;;;9.30;3.10;;;;;;;;;;5063340;28;20029;-73
2023/03/21 03:05:11;;;;;;;11.35;3.20;;;;;;;;;;5065326;28;20070;-70
2023/03/21 03:07:42;;;;;;;11.38;3.15;;;;;;;;;;5068384;28;20017;-70
2023/03/21 03:10:20;;;;;;;21.30;3.50;;;;;;;;;;5061955;28;20151;-70
2023/03/21 03:12:46;;;;;;;12.25;3.10;;;;;;;;;;5058127;28;20056;-71
2023/03/21 03:15:21;;;;;;;13.20;3.10;;;;;;;;;;5068273;28;20408;-71
2023/03/21 03:17:52;;;;;;;15.75;3.33;;;;;;;;;;5058612;28;20270;-71
2023/03/21 03:20:27;;;;;;;13.77;3.78;;;;;;;;;;5056829;28;20025;-71
2023/03/21 03:23:10;;;;;;;12.60;3.47;;;;;;;;;;5062312;28;20055;-71
2023/03/21 03:25:41;;;;;;;9.38;2.90;;;;;;;;;;5058809;28;20036;-71
2023/03/21 03:28:07;;;;;;;18.33;3.65;;;;;;;;;;5062892;28;20427;-71
2023/03/21 03:30:35;;;;;;;14.57;3.03;;;;;;;;;;5067822;28;20652;-71
2023/03/21 03:33:01;;;;;;;12.48;2.75;;;;;;;;;;5065588;28;20035;-71
2023/03/21 03:35:28;;;;;;;12.45;3.72;;;;;;;;;;5064804;28;20046;-71
2023/03/21 03:37:55;;;;;;;12.60;3.13;;;;;;;;;;5061476;28;20496;-71
2023/03/21 03:40:33;;;;;;;16.73;3.55;;;;;;;;;;5062561;28;20024;-71
2023/03/21 03:43:09;;;;;;;7.38;2.55;;;;;;;;;;5060918;28;20074;-71
2023/03/21 03:45:37;;;;;;;14.18;3.38;;;;;;;;;;5062958;28;20029;-71
2023/03/21 03:48:24;;;;;;;16.20;3.60;;;;;;;;;;5072941;28;20024;-71
2023/03/21 03:50:49;;;;;;;23.60;4.15;;;;;;;;;;5054026;28;20018;-71
2023/03/21 03:53:15;;;;;;;15.48;3.40;;;;;;;;;;5057587;28;20071;-70
2023/03/21 03:55:40;;;;;;;11.50;3.20;;;;;;;;;;5059697;28;20017;-71
2023/03/21 03:58:05;;;;;;;12.57;3.88;;;;;;;;;;5063886;28;20432;-71
2023/03/21 04:00:32;;;;;;;6.45;2.58;;;;;;;;;;5059703;28;20509;-71
2023/03/21 04:02:58;;;;;;;13.15;2.67;;;;;;;;;;5066952;28;20543;-71
2023/03/21 04:05:24;;;;;;;13.00;3.38;;;;;;;;;;5071122;28;20020;-70
2023/03/21 04:07:49;;;;;;;14.52;3.28;;;;;;;;;;5060328;28;20017;-71
2023/03/21 04:10:15;;;;;;;11.73;2.95;;;;;;;;;;5055329;28;20074;-71
2023/03/21 04:12:40;;;;;;;7.82;3.40;;;;;;;;;;5057573;28;20029;-70
2023/03/21 04:15:06;;;;;;;8.82;2.92;;;;;;;;;;5059225;28;20041;-73
2023/03/21 04:17:31;;;;;;;17.20;2.58;;;;;;;;;;5060262;28;20043;-71
2023/03/21 04:19:57;;;;;;;14.80;3.42;;;;;;;;;;5059320;28;20021;-71
2023/03/21 04:22:22;;;;;;;13.77;3.42;;;;;;;;;;5062302;28;20021;-71
2023/03/21 04:24:47;;;;;;;14.50;3.40;;;;;;;;;;5058748;28;20016;-71
2023/03/21 04:27:13;;;;;;;14.50;3.80;;;;;;;;;;5055786;28;20013;-71
2023/03/21 04:29:38;;;;;;;11.50;2.97;;;;;;;;;;5060644;28;20337;-71
2023/03/21 04:32:03;;;;;;;17.02;3.30;;;;;;;;;;5060643;28;20063;-71
2023/03/21 04:34:28;;;;;;;8.30;2.47;;;;;;;;;;5058401;28;20071;-71
2023/03/21 04:36:54;;;;;;;14.20;3.08;;;;;;;;;;5065159;28;20090;-71
2023/03/21 04:39:19;;;;;;;15.48;3.10;;;;;;;;;;5062631;28;20103;-70
2023/03/21 04:41:45;;;;;;;11.13;2.83;;;;;;;;;;5057989;28;20108;-72
2023/03/21 04:44:11;;;;;;;15.10;3.25;;;;;;;;;;5061341;28;20024;-70
2023/03/21 04:46:37;;;;;;;10.23;3.53;;;;;;;;;;5055260;28;20096;-70
2023/03/21 04:49:03;;;;;;;14.68;4.03;;;;;;;;;;5054721;28;20521;-70
2023/03/21 04:51:28;;;;;;;8.40;3.05;;;;;;;;;;5053312;28;20025;-70
2023/03/21 04:53:56;;;;;;;8.90;3.25;;;;;;;;;;5052907;28;20033;-70
2023/03/21 04:56:23;;;;;;;8.90;2.10;;;;;;;;;;5061551;28;20017;-72
2023/03/21 04:58:48;;;;;;;11.40;3.35;;;;;;;;;;5055247;28;20021;-72
2023/03/21 05:01:18;;;;;;;12.43;3.67;;;;;;;;;;5059060;28;20023;-71
2023/03/21 05:03:44;;;;;;;18.67;3.80;;;;;;;;;;5064160;28;20123;-70
2023/03/21 05:06:09;;;;;;;14.52;3.50;;;;;;;;;;5062730;28;20492;-70
2023/03/21 05:08:35;;;;;;;12.93;3.47;;;;;;;;;;5064229;28;20017;-72
2023/03/21 05:11:01;;;;;;;16.48;4.60;;;;;;;;;;5053992;28;20025;-71
2023/03/21 05:13:26;;;;;;;15.70;3.50;;;;;;;;;;5054954;28;20389;-71
2023/03/21 05:15:51;;;;;;;19.67;3.22;;;;;;;;;;5061040;28;20020;-71
2023/03/21 05:18:23;;;;;;;11.88;2.97;;;;;;;;;;5055532;28;20064;-70
2023/03/21 05:20:52;;;;;;;16.52;3.33;;;;;;;;;;5060518;28;20017;-70
2023/03/21 05:23:18;;;;;;;17.23;3.50;;;;;;;;;;5054223;28;20017;-71
2023/03/21 05:25:43;;;;;;;10.68;3.97;;;;;;;;;;5062998;28;20048;-71
2023/03/21 05:28:08;;;;;;;12.60;2.53;;;;;;;;;;5059285;28;20474;-71
2023/03/21 05:30:33;;;;;;;10.43;3.53;;;;;;;;;;5060543;28;20066;-73
2023/03/21 05:32:59;;;;;;;8.85;3.00;;;;;;;;;;5058394;28;20282;-70
2023/03/21 05:35:24;;;;;;;20.45;3.65;;;;;;;;;;5056326;28;20025;-70
2023/03/21 05:37:49;;;;;;;2.88;1.92;;;;;;;;;;5054116;28;20095;-72
2023/03/21 05:40:14;;;;;;;17.00;4.60;;;;;;;;;;5052507;28;20106;-71
2023/03/21 05:42:40;;;;;;;9.73;3.20;;;;;;;;;;5060205;28;20024;-71
2023/03/21 05:45:05;;;;;;;8.98;3.28;;;;;;;;;;5057924;28;20021;-71
2023/03/21 05:47:30;;;;;;;16.73;4.18;;;;;;;;;;5058276;28;20128;-70
2023/03/21 05:49:55;;;;;;;15.87;3.70;;;;;;;;;;5063666;28;20032;-70
2023/03/21 05:52:21;;;;;;;14.07;3.85;;;;;;;;;;5058112;28;20624;-71
2023/03/21 05:54:46;;;;;;;18.13;3.50;;;;;;;;;;5059143;28;20384;-73
2023/03/21 05:57:11;;;;;;;15.05;3.22;;;;;;;;;;5057834;28;20031;-70
2023/03/21 05:59:36;;;;;;;12.93;3.45;;;;;;;;;;5064117;28;20013;-71
2023/03/21 06:02:01;;;;;;;13.50;2.97;;;;;;;;;;5062785;28;20090;-71
2023/03/21 06:04:27;;;;;;;13.00;3.63;;;;;;;;;;5057993;28;20269;-71
2023/03/21 06:06:52;;;;;;;21.63;3.03;;;;;;;;;;5054305;28;20040;-72
2023/03/21 06:09:19;;;;;;;18.92;3.05;;;;;;;;;;5058517;28;20064;-71
2023/03/21 06:11:46;;;;;;;10.63;2.88;;;;;;;;;;5064065;28;20025;-74
2023/03/21 06:14:11;;;;;;;13.50;2.90;;;;;;;;;;5056892;28;20442;-71
2023/03/21 06:16:36;;;;;;;14.18;4.15;;;;;;;;;;5059807;28;20051;-71
2023/03/21 06:19:01;;;;;;;8.13;3.53;;;;;;;;;;5057335;28;20033;-71
2023/03/21 06:21:27;;;;;;;11.63;4.17;;;;;;;;;;5058731;28;20036;-73
2023/03/21 06:23:52;;;;;;;13.63;4.25;;;;;;;;;;5063342;28;20263;-71
2023/03/21 06:26:21;;;;;;;10.25;3.20;;;;;;;;;;5057092;28;20017;-71
2023/03/21 06:28:47;;;;;;;12.20;4.50;;;;;;;;;;5057129;28;20378;-71
2023/03/21 06:31:12;;;;;;;18.80;4.10;;;;;;;;;;5055415;28;20024;-71
2023/03/21 06:33:37;;;;;;;24.48;4.10;;;;;;;;;;5062956;28;20099;-72
2023/03/21 06:36:03;;;;;;;11.13;4.87;;;;;;;;;;5054737;28;20025;-72
2023/03/21 06:38:28;;;;;;;11.65;3.50;;;;;;;;;;5056994;28;20358;-72
2023/03/21 06:40:53;;;;;;;17.88;3.50;;;;;;;;;;5060745;28;20028;-71
2023/03/21 06:43:18;;;;;;;15.27;3.85;;;;;;;;;;5053392;28;20113;-71
2023/03/21 06:45:43;;;;;;;13.07;3.63;;;;;;;;;;5058766;28;20040;-71
2023/03/21 06:48:09;;;;;;;19.23;4.45;;;;;;;;;;5056743;28;20598;-71
2023/03/21 06:50:34;;;;;;;12.30;5.03;;;;;;;;;;5056378;28;20020;-71
2023/03/21 06:52:59;;;;;;;27.33;4.68;;;;;;;;;;5056653;28;20039;-71
2023/03/21 06:55:25;;;;;;;9.80;2.45;;;;;;;;;;5050518;28;20482;-72
2023/03/21 06:57:55;;;;;;;16.52;2.53;;;;;;;;;;5060607;28;20095;-72
2023/03/21 07:00:20;;;;;;;7.47;2.83;;;;;;;;;;5052955;28;20025;-71
2023/03/21 07:02:46;;;;;;;14.30;3.95;;;;;;;;;;5057754;28;20039;-71
2023/03/21 07:05:11;;;;;;;22.98;4.30;;;;;;;;;;5052944;28;20012;-71
2023/03/21 07:07:36;;;;;;;18.90;3.97;;;;;;;;;;5052858;28;20046;-71
2023/03/21 07:10:02;;;;;;;13.38;3.63;;;;;;;;;;5057061;28;20916;-72
2023/03/21 07:12:27;;;;;;;20.13;4.82;;;;;;;;;;5058680;28;20450;-71
2023/03/21 07:14:53;;;;;;;19.93;4.57;;;;;;;;;;5060660;28;20025;-73
2023/03/21 07:17:18;;;;;;;9.23;2.43;;;;;;;;;;5057452;28;20271;-72
2023/03/21 07:19:43;;;;;;;15.60;4.67;;;;;;;;;;5052542;28;20291;-72
2023/03/21 07:22:08;;;;;;;27.65;4.95;;;;;;;;;;5056597;28;20278;-70
2023/03/21 07:24:33;;;;;;;19.47;2.97;;;;;;;;;;5056634;28;20351;-73
2023/03/21 07:26:58;;;;;;;15.25;4.70;;;;;;;;;;5053762;28;20282;-70
2023/03/21 07:29:24;;;;;;;20.90;5.73;;;;;;;;;;5057209;28;20109;-71
2023/03/21 07:31:49;;;;;;;10.52;3.45;;;;;;;;;;5050403;28;20668;-72
2023/03/21 07:34:15;;;;;;;23.45;5.75;;;;;;;;;;5067488;28;20085;-71
2023/03/21 07:36:41;;;;;;;19.48;5.95;;;;;;;;;;5057309;28;20036;-71
2023/03/21 07:39:06;;;;;;;22.10;5.32;;;;;;;;;;5058868;28;20033;-71
2023/03/21 07:41:31;;;;;;;22.80;5.43;;;;;;;;;;5057732;28;20017;-71
2023/03/21 07:43:56;;;;;;;17.85;6.05;;;;;;;;;;5051702;28;20115;-71
2023/03/21 07:46:22;;;;;;;13.95;5.28;;;;;;;;;;5061842;28;20043;-72
2023/03/21 07:48:47;;;;;;;21.47;5.03;;;;;;;;;;5063628;28;20602;-71
2023/03/21 07:51:12;;;;;;;18.43;6.00;;;;;;;;;;5053049;28;20375;-72
2023/03/21 07:53:38;;;;;;;24.77;6.53;;;;;;;;;;5057830;28;20267;-71
2023/03/21 07:56:03;;;;;;;15.00;5.03;;;;;;;;;;5056525;28;20279;-71
2023/03/21 07:58:28;;;;;;;20.55;7.07;;;;;;;;;;5059603;28;20099;-71
2023/03/21 08:00:55;;;;;;;26.08;9.55;;;;;;;;;;5062893;28;20400;-71
2023/03/21 08:03:22;;;;;;;24.48;8.02;;;;;;;;;;5059670;28;20019;-71
2023/03/21 08:05:47;;;;;;;16.30;5.57;;;;;;;;;;5062128;28;20461;-71
2023/03/21 08:08:13;;;;;;;24.23;8.73;;;;;;;;;;5053217;28;20072;-71
2023/03/21 08:10:38;;;;;;;19.40;7.63;;;;;;;;;;5052214;28;20271;-71
2023/03/21 08:13:03;;;;;;;25.75;8.65;;;;;;;;;;5056938;28;20028;-71
2023/03/21 08:15:28;;;;;;;24.15;6.68;;;;;;;;;;5056032;28;20096;-72
2023/03/21 08:17:54;;;;;;;20.73;5.17;;;;;;;;;;5051562;28;20051;-71
2023/03/21 08:20:20;;;;;;;20.92;5.22;;;;;;;;;;5055009;28;20283;-71
2023/03/21 08:22:46;;;;;;;23.77;6.38;;;;;;;;;;5054625;28;20052;-71
2023/03/21 08:25:15;;;;;;;20.45;5.20;;;;;;;;;;5068468;28;20051;-71
2023/03/21 08:27:41;;;;;;;13.82;3.58;;;;;;;;;;5063996;28;20492;-71
2023/03/21 08:30:07;;;;;;;17.63;4.57;;;;;;;;;;5067350;28;20028;-71
2023/03/21 08:32:32;;;;;;;23.77;4.53;;;;;;;;;;5062246;28;20021;-71
2023/03/21 08:35:00;;;;;;;16.17;3.45;;;;;;;;;;5054295;28;20035;-71
2023/03/21 08:37:26;;;;;;;25.50;6.40;;;;;;;;;;5050730;28;20025;-72
2023/03/21 08:39:51;;;;;;;15.73;5.88;;;;;;;;;;5062145;28;20032;-72
2023/03/21 08:42:16;;;;;;;35.90;7.45;;;;;;;;;;5061775;28;20107;-72
2023/03/21 08:44:42;;;;;;;12.05;3.50;;;;;;;;;;5065155;28;20024;-71
2023/03/21 08:47:07;;;;;;;13.90;4.40;;;;;;;;;;5053749;28;20012;-71
2023/03/21 08:49:34;;;;;;;25.47;8.27;;;;;;;;;;5060261;28;20400;-71
2023/03/21 08:51:59;;;;;;;21.75;8.40;;;;;;;;;;5057722;28;20284;-71
2023/03/21 08:54:24;;;;;;;22.20;6.95;;;;;;;;;;5066365;28;20024;-71
2023/03/21 08:56:49;;;;;;;21.13;6.83;;;;;;;;;;5057852;28;20114;-71
2023/03/21 08:59:15;;;;;;;15.53;4.97;;;;;;;;;;5050641;28;20652;-71
2023/03/21 09:01:40;;;;;;;26.02;6.20;;;;;;;;;;5051512;28;20275;-71
2023/03/21 09:04:09;;;;;;;22.55;6.18;;;;;;;;;;5064268;28;20036;-71
2023/03/21 09:06:34;;;;;;;17.70;6.88;;;;;;;;;;5057964;28;20013;-71
2023/03/21 09:09:00;;;;;;;10.15;6.13;;;;;;;;;;5057348;28;20024;-71
2023/03/21 09:11:25;;;;;;;12.80;5.65;;;;;;;;;;5061629;28;20377;-71
2023/03/21 09:13:50;;;;;;;34.03;11.50;;;;;;;;;;5061807;28;20017;-71
2023/03/21 09:16:15;;;;;;;29.58;10.60;;;;;;;;;;5067764;28;20278;-71
2023/03/21 09:18:45;;;;;;;34.35;13.45;;;;;;;;;;5061409;28;20481;-71
2023/03/21 09:21:12;;;;;;;58.13;19.30;;;;;;;;;;5067778;28;20008;-71
2023/03/21 09:23:38;;;;;;;18.23;6.75;;;;;;;;;;5060259;28;20060;-71
2023/03/21 09:26:04;;;;;;;34.42;12.35;;;;;;;;;;5064485;28;20074;-70
2023/03/21 09:28:30;;;;;;;40.80;14.43;;;;;;;;;;5060590;28;20119;-70
2023/03/21 09:30:57;;;;;;;31.17;8.75;;;;;;;;;;5064082;28;20452;-70
2023/03/21 09:33:24;;;;;;;9.02;4.18;;;;;;;;;;5061548;28;20021;-70
2023/03/21 09:35:49;;;;;;;29.55;12.23;;;;;;;;;;5052898;28;20013;-70
2023/03/21 09:38:16;;;;;;;26.35;6.60;;;;;;;;;;5057428;28;20017;-70
2023/03/21 09:40:53;;;;;;;19.67;7.63;;;;;;;;;;5051453;28;20044;-70
2023/03/21 09:43:25;;;;;;;9.10;3.75;;;;;;;;;;5060401;28;20013;-70
2023/03/21 09:45:58;;;;;;;13.18;4.90;;;;;;;;;;5054015;28;20447;-70
2023/03/21 09:48:32;;;;;;;27.67;11.18;;;;;;;;;;5061989;28;20040;-71
2023/03/21 09:50:57;;;;;;;13.82;5.80;;;;;;;;;;5064024;28;20048;-70
2023/03/21 09:53:26;;;;;;;23.90;6.80;;;;;;;;;;5057148;28;20073;-70
2023/03/21 09:55:53;;;;;;;26.08;8.25;;;;;;;;;;5056814;28;20180;-70
2023/03/21 09:58:19;;;;;;;19.52;7.18;;;;;;;;;;5062443;28;20021;-70
2023/03/21 10:00:48;;;;;;;14.75;4.47;;;;;;;;;;5060170;28;20104;-70
2023/03/21 10:03:24;;;;;;;25.40;8.02;;;;;;;;;;5067467;28;20393;-70
2023/03/21 10:05:57;;;;;;;23.48;6.22;;;;;;;;;;5066825;28;20017;-70
2023/03/21 10:08:26;;;;;;;14.93;5.05;;;;;;;;;;5057847;28;20028;-70
2023/03/21 10:10:53;;;;;;;19.88;5.07;;;;;;;;;;5061295;28;20043;-70
2023/03/21 10:13:21;;;;;;;21.92;7.10;;;;;;;;;;5052585;28;20016;-70
2023/03/21 10:15:47;;;;;;;16.33;6.40;;;;;;;;;;5057341;28;20033;-70
2023/03/21 10:18:15;;;;;;;15.90;5.25;;;;;;;;;;5053107;28;20021;-70
2023/03/21 10:20:41;;;;;;;36.92;10.57;;;;;;;;;;5060941;28;20028;-70
2023/03/21 10:23:11;;;;;;;28.70;6.38;;;;;;;;;;5054029;28;20025;-70
2023/03/21 10:25:36;;;;;;;;;;;;;;;;;;5057546;28;20098;-70
2023/03/21 10:28:04;;;;;;;10.13;4.15;;;;;;;;;;5062162;28;19916;-71
2023/03/21 10:30:35;;;;;;;19.25;5.63;;;;;;;;;;5059859;28;20539;-70
2023/03/21 10:33:04;;;;;;;6.45;2.42;;;;;;;;;;5061863;28;20103;-70
2023/03/21 10:35:32;;;;;;;16.00;4.65;;;;;;;;;;5064162;28;20019;-70
2023/03/21 10:37:58;;;;;;;7.60;3.75;;;;;;;;;;5074976;28;20028;-70
2023/03/21 10:40:23;;;;;;;8.70;2.90;;;;;;;;;;5065003;28;20024;-70
2023/03/21 10:42:48;;;;;;;11.43;4.85;;;;;;;;;;5064789;28;20028;-71
2023/03/21 10:45:16;;;;;;;13.67;3.43;;;;;;;;;;5065195;28;20105;-70
2023/03/21 10:47:42;;;;;;;15.02;4.25;;;;;;;;;;5050240;28;21236;-71
2023/03/21 10:50:11;;;;;;;10.20;2.88;;;;;;;;;;5068354;28;20513;-70
2023/03/21 10:52:40;;;;;;;12.48;3.88;;;;;;;;;;5060215;28;20035;-71
2023/03/21 10:55:05;;;;;;;14.32;4.25;;;;;;;;;;5056100;28;20037;-70
2023/03/21 10:57:30;;;;;;;14.67;4.03;;;;;;;;;;5062052;28;20389;-70
2023/03/21 10:59:57;;;;;;;12.20;3.43;;;;;;;;;;5063244;28;20299;-71
2023/03/21 11:02:32;;;;;;;22.30;3.35;;;;;;;;;;5061813;28;20355;-70
2023/03/21 11:05:03;;;;;;;6.65;2.20;;;;;;;;;;5062782;28;20021;-70
2023/03/21 11:07:30;;;;;;;8.85;3.28;;;;;;;;;;5061679;28;20066;-70
2023/03/21 11:09:57;;;;;;;4.00;2.50;;;;;;;;;;5066171;28;20021;-70
2023/03/21 11:12:32;;;;;;;7.35;2.47;;;;;;;;;;5061943;28;20017;-70
2023/03/21 11:15:12;;;;;;;6.28;2.65;;;;;;;;;;5064115;28;20033;-72
2023/03/21 11:17:37;;;;;;;;;;;;;;;;;;5060377;28;20457;-70
2023/03/21 11:20:09;;;;;;;11.02;3.38;;;;;;;;;;5061506;28;20448;-70
2023/03/21 11:22:42;;;;;;;10.90;2.08;;;;;;;;;;5062347;28;20377;-71
2023/03/21 11:25:10;;;;;;;8.52;4.07;;;;;;;;;;5067330;28;20601;-70
2023/03/21 11:27:45;;;;;;;7.10;2.35;;;;;;;;;;5059826;28;20028;-71
2023/03/21 11:30:17;;;;;;;8.20;4.53;;;;;;;;;;5060834;28;20116;-70
2023/03/21 11:32:43;;;;;;;8.80;2.35;;;;;;;;;;5064310;28;20021;-70
2023/03/21 11:35:11;;;;;;;6.93;2.55;;;;;;;;;;5047974;28;20058;-70
2023/03/21 11:37:38;;;;;;;17.17;4.72;;;;;;;;;;5054311;28;20025;-70
2023/03/21 11:40:06;;;;;;;25.55;4.28;;;;;;;;;;5065806;28;21797;-70
2023/03/21 11:42:39;;;;;;;9.60;4.03;;;;;;;;;;5068500;28;20028;-70
2023/03/21 11:45:14;;;;;;;9.18;4.25;;;;;;;;;;5059185;28;20025;-71
2023/03/21 11:47:40;;;;;;;11.10;3.72;;;;;;;;;;5058516;28;20021;-70
2023/03/21 11:50:28;;;;;;;8.48;2.35;;;;;;;;;;5057956;28;20596;-71
2023/03/21 11:53:03;;;;;;;12.32;4.28;;;;;;;;;;5047831;28;20120;-70
2023/03/21 11:55:28;;;;;;;10.63;3.05;;;;;;;;;;5055663;28;20019;-70
2023/03/21 11:58:16;;;;;;;8.35;3.20;;;;;;;;;;5051912;28;20020;-70
2023/03/21 12:00:53;;;;;;;9.50;4.00;;;;;;;;;;5068170;28;20028;-70
2023/03/21 12:03:37;;;;;;;8.30;2.75;;;;;;;;;;5056757;28;20070;-70
2023/03/21 12:06:04;;;;;;;2.92;1.85;;;;;;;;;;5058519;28;20426;-70
2023/03/21 12:08:33;;;;;;;11.32;2.45;;;;;;;;;;5063331;28;20150;-70
2023/03/21 12:11:04;;;;;;;9.77;2.55;;;;;;;;;;5061364;28;20025;-70
2023/03/21 12:13:39;;;;;;;13.38;3.92;;;;;;;;;;5063132;28;20012;-70
2023/03/21 12:16:07;;;;;;;11.43;3.40;;;;;;;;;;5058617;28;20412;-70
2023/03/21 12:18:33;;;;;;;8.18;3.03;;;;;;;;;;5058894;28;20033;-70
2023/03/21 12:21:00;;;;;;;7.75;3.28;;;;;;;;;;5058550;28;20024;-70
2023/03/21 12:23:31;;;;;;;17.52;4.07;;;;;;;;;;5058595;28;20013;-70
2023/03/21 12:26:02;;;;;;;6.65;3.20;;;;;;;;;;5057852;28;20657;-70
2023/03/21 12:28:41;;;;;;;9.65;4.53;;;;;;;;;;5060802;28;20114;-70
2023/03/21 12:31:06;;;;;;;5.43;2.25;;;;;;;;;;5056622;28;20489;-70
2023/03/21 12:33:42;;;;;;;4.85;2.85;;;;;;;;;;5061303;28;20037;-70
2023/03/21 12:36:28;;;;;;;14.07;4.88;;;;;;;;;;5052400;28;20115;-69
2023/03/21 12:38:59;;;;;;;7.90;3.83;;;;;;;;;;5055611;28;20044;-70
2023/03/21 12:41:32;;;;;;;8.82;3.00;;;;;;;;;;5060186;28;20016;-70
2023/03/21 12:43:58;;;;;;;11.30;3.03;;;;;;;;;;5058122;28;20017;-70
2023/03/21 12:46:27;;;;;;;9.77;3.58;;;;;;;;;;5064082;28;20016;-70
2023/03/21 12:48:53;;;;;;;6.68;3.10;;;;;;;;;;5059744;28;20028;-70
2023/03/21 12:51:21;;;;;;;11.80;3.08;;;;;;;;;;5055287;28;20070;-70
2023/03/21 12:53:58;;;;;;;11.00;4.78;;;;;;;;;;5062055;28;20035;-70
2023/03/21 12:56:29;;;;;;;3.88;2.60;;;;;;;;;;5060851;28;20065;-70
2023/03/21 12:59:01;;;;;;;7.20;3.13;;;;;;;;;;5061218;28;21344;-70
2023/03/21 13:01:27;;;;;;;10.68;1.83;;;;;;;;;;5060035;28;20044;-70
2023/03/21 13:04:01;;;;;;;12.10;5.15;;;;;;;;;;5057713;28;20059;-70
2023/03/21 13:06:27;;;;;;;10.80;2.10;;;;;;;;;;5058319;28;20462;-71
2023/03/21 13:08:59;;;;;;;6.93;2.97;;;;;;;;;;5057324;28;20036;-70
2023/03/21 13:11:26;;;;;;;6.07;3.22;;;;;;;;;;5062983;28;20531;-70
2023/03/21 13:14:04;;;;;;;7.22;3.33;;;;;;;;;;5063775;28;20354;-70
2023/03/21 13:16:32;;;;;;;13.52;3.72;;;;;;;;;;5056686;28;20015;-70
2023/03/21 13:19:02;;;;;;;7.65;4.30;;;;;;;;;;5056316;28;20074;-70
2023/03/21 13:21:35;;;;;;;7.22;2.63;;;;;;;;;;5055435;28;20063;-70
2023/03/21 13:24:01;;;;;;;5.80;3.17;;;;;;;;;;5049573;28;20064;-71
2023/03/21 13:26:37;;;;;;;14.55;5.38;;;;;;;;;;5054119;28;20013;-70
2023/03/21 13:29:11;;;;;;;8.52;2.28;;;;;;;;;;5055348;28;20122;-70
2023/03/21 13:31:42;;;;;;;14.00;2.63;;;;;;;;;;5048477;28;20224;-70
2023/03/21 13:34:08;;;;;;;11.57;4.65;;;;;;;;;;5054430;28;20025;-70
2023/03/21 13:36:36;;;;;;;4.13;2.22;;;;;;;;;;5059528;28;20035;-71
2023/03/21 13:39:06;;;;;;;5.03;3.15;;;;;;;;;;5061426;28;20021;-71
2023/03/21 13:41:37;;;;;;;8.43;5.15;;;;;;;;;;5059227;28;20040;-71
2023/03/21 13:44:02;;;;;;;7.75;2.72;;;;;;;;;;5065510;28;20120;-71
2023/03/21 13:46:27;;;;;;;11.45;2.53;;;;;;;;;;5063096;28;20084;-71
2023/03/21 13:48:54;;;;;;;10.40;2.70;;;;;;;;;;5067082;28;20075;-71
2023/03/21 13:51:37;;;;;;;8.93;2.42;;;;;;;;;;5065414;28;20082;-71
2023/03/21 13:54:17;;;;;;;11.70;3.03;;;;;;;;;;5062975;28;20029;-70
2023/03/21 13:56:45;;;;;;;6.70;2.88;;;;;;;;;;5058989;28;20094;-71
2023/03/21 13:59:11;;;;;;;9.93;1.80;;;;;;;;;;5062124;28;20104;-71
2023/03/21 14:01:37;;;;;;;11.65;2.67;;;;;;;;;;5067044;28;20048;-71
2023/03/21 14:04:05;;;;;;;8.00;2.35;;;;;;;;;;5061681;28;20048;-71
2023/03/21 14:06:32;;;;;;;2.78;1.75;;;;;;;;;;5064679;28;20020;-71
2023/03/21 14:08:58;;;;;;;9.40;3.95;;;;;;;;;;5060930;28;20022;-71
2023/03/21 14:11:24;;;;;;;5.97;3.13;;;;;;;;;;5064209;28;20647;-71
2023/03/21 14:13:51;;;;;;;6.57;3.13;;;;;;;;;;5064630;28;20028;-71
2023/03/21 14:16:17;;;;;;;8.07;2.00;;;;;;;;;;5064345;28;20035;-71
2023/03/21 14:18:50;;;;;;;5.47;1.98;;;;;;;;;;5063168;28;20025;-71
2023/03/21 14:21:19;;;;;;;9.77;3.58;;;;;;;;;;5063042;28;20021;-71
2023/03/21 14:23:45;;;;;;;9.15;3.22;;;;;;;;;;5061225;28;20020;-71
2023/03/21 14:26:11;;;;;;;13.25;2.22;;;;;;;;;;5058842;28;20126;-71
2023/03/21 14:28:47;;;;;;;6.72;2.38;;;;;;;;;;5058923;28;20029;-71
2023/03/21 14:31:14;;;;;;;9.77;2.42;;;;;;;;;;5062085;28;20037;-71
2023/03/21 14:33:42;;;;;;;8.60;2.78;;;;;;;;;;5061822;28;20067;-69
2023/03/21 14:36:16;;;;;;;6.07;2.95;;;;;;;;;;5062613;28;20020;-70